N375MD KFAY-KMCO
Flight info
| Callsign | N375MD |
|---|---|
| Flight time | N/A |
| Altitude | 30000 |
| Route | FAY SOOOP LPERD SNFLD3 |
| Aircraft | SF50/L-SDGRWY/L |
Departure
| Time | 2026-04-12 21:41 |
|---|---|
| Airport | Fayetteville Regional Airport - Grannis Field (KFAY) |
Arrival
| Time | N/A |
|---|---|
| Airport | Orlando International Airport (KMCO) |
| Time | Latitude | Longitude | Altitude | Speed | Heading |
|---|---|---|---|---|---|
| 2026-04-12 21:34 | 34.98598 | -78.87893 | 190 ft | 0 kts | 346° |
| 2026-04-12 21:35 | 34.98600 | -78.87895 | 190 ft | 0 kts | 310° |
| 2026-04-12 21:35 | 34.98602 | -78.87897 | 190 ft | 3 kts | 300° |
| 2026-04-12 21:35 | 34.98607 | -78.87947 | 190 ft | 9 kts | 266° |
| 2026-04-12 21:36 | 34.98608 | -78.88037 | 191 ft | 10 kts | 271° |
| 2026-04-12 21:36 | 34.98626 | -78.88080 | 191 ft | 5 kts | 353° |
| 2026-04-12 21:36 | 34.98660 | -78.88099 | 195 ft | 7 kts | 290° |
| 2026-04-12 21:36 | 34.98660 | -78.88162 | 192 ft | 9 kts | 271° |
| 2026-04-12 21:37 | 34.98661 | -78.88243 | 193 ft | 9 kts | 255° |
| 2026-04-12 21:37 | 34.98610 | -78.88289 | 194 ft | 10 kts | 211° |
| 2026-04-12 21:37 | 34.98553 | -78.88330 | 198 ft | 10 kts | 213° |
| 2026-04-12 21:37 | 34.98495 | -78.88375 | 198 ft | 10 kts | 210° |
| 2026-04-12 21:38 | 34.98462 | -78.88425 | 199 ft | 7 kts | 298° |
| 2026-04-12 21:38 | 34.98489 | -78.88474 | 196 ft | 7 kts | 302° |
| 2026-04-12 21:38 | 34.98513 | -78.88524 | 197 ft | 7 kts | 296° |
| 2026-04-12 21:38 | 34.98536 | -78.88574 | 204 ft | 7 kts | 301° |
| 2026-04-12 21:39 | 34.98577 | -78.88601 | 199 ft | 9 kts | 43° |
| 2026-04-12 21:39 | 34.98687 | -78.88516 | 195 ft | 42 kts | 30° |
| 2026-04-12 21:39 | 34.99118 | -78.88219 | 193 ft | 96 kts | 38° |
| 2026-04-12 21:39 | 34.99805 | -78.87688 | 186 ft | 138 kts | 33° |
| 2026-04-12 21:40 | 35.00674 | -78.87034 | 412 ft | 155 kts | 38° |
| 2026-04-12 21:40 | 35.01811 | -78.86277 | 267 ft | 210 kts | 27° |
| 2026-04-12 21:40 | 35.03230 | -78.85490 | 441 ft | 234 kts | 27° |
| 2026-04-12 21:40 | 35.04599 | -78.84354 | 704 ft | 245 kts | 48° |
| 2026-04-12 21:41 | 35.05327 | -78.82572 | 933 ft | 221 kts | 80° |
| 2026-04-12 21:41 | 35.05147 | -78.80865 | 1154 ft | 190 kts | 123° |
| 2026-04-12 21:41 | 35.04173 | -78.80042 | 1386 ft | 165 kts | 172° |
| 2026-04-12 21:41 | 35.03184 | -78.80526 | 1612 ft | 154 kts | 220° |
| 2026-04-12 21:42 | 35.02441 | -78.81487 | 1881 ft | 162 kts | 220° |
| 2026-04-12 21:42 | 35.01656 | -78.82452 | 2240 ft | 159 kts | 221° |
| 2026-04-12 21:42 | 35.00858 | -78.83417 | 2559 ft | 163 kts | 220° |
| 2026-04-12 21:42 | 35.00047 | -78.84383 | 2860 ft | 162 kts | 220° |
| 2026-04-12 21:43 | 34.99233 | -78.85356 | 3142 ft | 165 kts | 221° |
| 2026-04-12 21:43 | 34.98412 | -78.86328 | 3391 ft | 165 kts | 221° |
| 2026-04-12 21:43 | 34.97590 | -78.87291 | 3633 ft | 163 kts | 221° |
| 2026-04-12 21:43 | 34.96766 | -78.88242 | 3858 ft | 163 kts | 221° |
| 2026-04-12 21:44 | 34.95932 | -78.89185 | 4105 ft | 164 kts | 220° |
| 2026-04-12 21:44 | 34.95103 | -78.90140 | 4329 ft | 164 kts | 221° |
| 2026-04-12 21:44 | 34.94267 | -78.91096 | 4563 ft | 164 kts | 220° |
| 2026-04-12 21:44 | 34.93423 | -78.92062 | 4789 ft | 168 kts | 220° |
| 2026-04-12 21:45 | 34.92567 | -78.93022 | 5051 ft | 168 kts | 220° |
| 2026-04-12 21:45 | 34.91710 | -78.93984 | 5299 ft | 167 kts | 220° |
| 2026-04-12 21:45 | 34.90843 | -78.94933 | 5542 ft | 165 kts | 221° |
| 2026-04-12 21:45 | 34.89962 | -78.95798 | 5748 ft | 168 kts | 206° |
| 2026-04-12 21:46 | 34.88786 | -78.95936 | 6049 ft | 174 kts | 182° |
| 2026-04-12 21:46 | 34.87594 | -78.96052 | 6527 ft | 172 kts | 196° |
| 2026-04-12 21:46 | 34.86480 | -78.96608 | 6870 ft | 175 kts | 211° |
| 2026-04-12 21:46 | 34.85415 | -78.97322 | 7319 ft | 174 kts | 212° |
| 2026-04-12 21:47 | 34.84351 | -78.98031 | 7738 ft | 176 kts | 211° |
| 2026-04-12 21:47 | 34.83289 | -78.98735 | 8215 ft | 173 kts | 211° |
| 2026-04-12 21:47 | 34.82217 | -78.99445 | 8580 ft | 177 kts | 210° |
| 2026-04-12 21:47 | 34.81135 | -79.00163 | 9016 ft | 177 kts | 210° |
| 2026-04-12 21:48 | 34.80039 | -79.00890 | 9411 ft | 179 kts | 210° |
| 2026-04-12 21:48 | 34.78938 | -79.01619 | 9862 ft | 179 kts | 210° |
| 2026-04-12 21:48 | 34.77831 | -79.02351 | 10263 ft | 182 kts | 210° |
| 2026-04-12 21:48 | 34.76728 | -79.03079 | 10702 ft | 180 kts | 211° |
| 2026-04-12 21:49 | 34.75621 | -79.03811 | 10994 ft | 186 kts | 211° |
| 2026-04-12 21:49 | 34.74479 | -79.04566 | 11320 ft | 190 kts | 210° |
| 2026-04-12 21:49 | 34.73301 | -79.05344 | 11660 ft | 193 kts | 211° |
| 2026-04-12 21:49 | 34.72123 | -79.06121 | 12048 ft | 192 kts | 211° |
| 2026-04-12 21:50 | 34.70948 | -79.06898 | 12442 ft | 192 kts | 212° |
| 2026-04-12 21:50 | 34.69772 | -79.07675 | 12777 ft | 195 kts | 211° |
| 2026-04-12 21:50 | 34.68578 | -79.08463 | 13126 ft | 196 kts | 210° |
| 2026-04-12 21:50 | 34.67369 | -79.09262 | 13446 ft | 199 kts | 212° |
| 2026-04-12 21:51 | 34.66160 | -79.10060 | 13812 ft | 199 kts | 212° |
| 2026-04-12 21:51 | 34.64942 | -79.10862 | 14157 ft | 199 kts | 213° |
| 2026-04-12 21:51 | 34.63718 | -79.11669 | 14415 ft | 202 kts | 213° |
| 2026-04-12 21:51 | 34.62476 | -79.12487 | 14694 ft | 204 kts | 211° |
| 2026-04-12 21:52 | 34.61222 | -79.13312 | 14970 ft | 206 kts | 213° |
| 2026-04-12 21:52 | 34.59962 | -79.14141 | 15255 ft | 207 kts | 211° |
| 2026-04-12 21:52 | 34.58694 | -79.14976 | 15548 ft | 208 kts | 213° |
| 2026-04-12 21:52 | 34.57415 | -79.15818 | 15807 ft | 210 kts | 211° |
| 2026-04-12 21:53 | 34.56127 | -79.16665 | 16084 ft | 212 kts | 212° |
| 2026-04-12 21:53 | 34.54830 | -79.17520 | 16363 ft | 213 kts | 211° |
| 2026-04-12 21:53 | 34.53522 | -79.18378 | 16628 ft | 215 kts | 212° |
| 2026-04-12 21:53 | 34.52205 | -79.19244 | 16906 ft | 216 kts | 211° |
| 2026-04-12 21:54 | 34.50879 | -79.20115 | 17162 ft | 218 kts | 211° |
| 2026-04-12 21:54 | 34.49538 | -79.20995 | 17420 ft | 220 kts | 212° |
| 2026-04-12 21:54 | 34.48185 | -79.21882 | 17683 ft | 222 kts | 213° |
| 2026-04-12 21:54 | 34.46822 | -79.22775 | 17937 ft | 223 kts | 212° |
| 2026-04-12 21:55 | 34.45453 | -79.23672 | 18210 ft | 224 kts | 211° |
| 2026-04-12 21:55 | 34.44073 | -79.24578 | 18483 ft | 225 kts | 211° |
| 2026-04-12 21:55 | 34.42690 | -79.25483 | 18713 ft | 227 kts | 211° |
| 2026-04-12 21:55 | 34.41308 | -79.26389 | 18919 ft | 229 kts | 212° |
| 2026-04-12 21:56 | 34.39905 | -79.27308 | 19157 ft | 229 kts | 212° |
| 2026-04-12 21:56 | 34.38502 | -79.28227 | 19385 ft | 229 kts | 212° |
| 2026-04-12 21:56 | 34.37094 | -79.29149 | 19591 ft | 231 kts | 213° |
| 2026-04-12 21:56 | 34.35680 | -79.30073 | 19804 ft | 232 kts | 212° |
| 2026-04-12 21:57 | 34.34225 | -79.31027 | 19814 ft | 243 kts | 212° |
| 2026-04-12 21:57 | 34.32711 | -79.32016 | 19833 ft | 251 kts | 212° |
| 2026-04-12 21:57 | 34.31179 | -79.33012 | 20154 ft | 242 kts | 212° |
| 2026-04-12 21:57 | 34.29740 | -79.33946 | 20577 ft | 233 kts | 212° |
| 2026-04-12 21:58 | 34.28308 | -79.34887 | 20759 ft | 235 kts | 212° |
| 2026-04-12 21:58 | 34.26869 | -79.35828 | 20963 ft | 236 kts | 212° |
| 2026-04-12 21:58 | 34.25418 | -79.36772 | 21151 ft | 238 kts | 212° |
| 2026-04-12 21:58 | 34.23964 | -79.37720 | 21370 ft | 237 kts | 212° |
| 2026-04-12 21:59 | 34.22509 | -79.38669 | 21599 ft | 237 kts | 212° |
| 2026-04-12 21:59 | 34.21056 | -79.39615 | 21829 ft | 237 kts | 212° |
| 2026-04-12 21:59 | 34.19623 | -79.40549 | 22053 ft | 237 kts | 212° |
| 2026-04-12 21:59 | 34.18177 | -79.41495 | 22280 ft | 236 kts | 212° |
| 2026-04-12 22:00 | 34.16725 | -79.42434 | 22498 ft | 237 kts | 212° |
| 2026-04-12 22:00 | 34.15279 | -79.43374 | 22744 ft | 235 kts | 212° |
| 2026-04-12 22:00 | 34.13840 | -79.44312 | 22971 ft | 235 kts | 213° |
| 2026-04-12 22:00 | 34.12398 | -79.45247 | 23198 ft | 235 kts | 213° |
| 2026-04-12 22:01 | 34.10959 | -79.46183 | 23428 ft | 235 kts | 213° |
| 2026-04-12 22:01 | 34.09520 | -79.47115 | 23655 ft | 235 kts | 213° |
| 2026-04-12 22:01 | 34.08082 | -79.48047 | 23879 ft | 235 kts | 213° |
| 2026-04-12 22:01 | 34.06644 | -79.48982 | 24077 ft | 234 kts | 213° |
| 2026-04-12 22:02 | 34.05207 | -79.49915 | 24262 ft | 234 kts | 213° |
| 2026-04-12 22:02 | 34.03771 | -79.50847 | 24447 ft | 234 kts | 213° |
| 2026-04-12 22:02 | 34.02335 | -79.51778 | 24627 ft | 234 kts | 213° |
| 2026-04-12 22:02 | 34.00895 | -79.52712 | 24802 ft | 235 kts | 213° |
| 2026-04-12 22:03 | 33.99456 | -79.53642 | 24987 ft | 235 kts | 213° |
| 2026-04-12 22:03 | 33.98016 | -79.54576 | 25175 ft | 235 kts | 213° |
| 2026-04-12 22:03 | 33.96576 | -79.55508 | 25369 ft | 235 kts | 214° |
| 2026-04-12 22:03 | 33.95136 | -79.56439 | 25552 ft | 235 kts | 214° |
| 2026-04-12 22:04 | 33.93693 | -79.57370 | 25743 ft | 235 kts | 214° |
| 2026-04-12 22:04 | 33.92271 | -79.58290 | 25923 ft | 235 kts | 214° |
| 2026-04-12 22:04 | 33.90828 | -79.59220 | 26113 ft | 235 kts | 214° |
| 2026-04-12 22:04 | 33.89388 | -79.60152 | 26304 ft | 235 kts | 214° |
| 2026-04-12 22:05 | 33.87942 | -79.61082 | 26502 ft | 235 kts | 214° |
| 2026-04-12 22:05 | 33.86501 | -79.62014 | 26690 ft | 235 kts | 214° |
| 2026-04-12 22:05 | 33.85057 | -79.62944 | 26882 ft | 235 kts | 215° |
| 2026-04-12 22:05 | 33.83616 | -79.63876 | 27073 ft | 235 kts | 215° |
| 2026-04-12 22:06 | 33.82174 | -79.64805 | 27264 ft | 235 kts | 215° |
| 2026-04-12 22:06 | 33.80734 | -79.65734 | 27459 ft | 235 kts | 215° |
| 2026-04-12 22:06 | 33.79313 | -79.66650 | 27653 ft | 235 kts | 215° |
| 2026-04-12 22:06 | 33.77871 | -79.67578 | 27852 ft | 235 kts | 215° |
| 2026-04-12 22:07 | 33.76425 | -79.68511 | 28030 ft | 236 kts | 215° |
| 2026-04-12 22:07 | 33.74976 | -79.69445 | 28214 ft | 236 kts | 215° |
| 2026-04-12 22:07 | 33.73530 | -79.70372 | 28412 ft | 236 kts | 215° |
| 2026-04-12 22:07 | 33.72082 | -79.71301 | 28608 ft | 236 kts | 215° |
| 2026-04-12 22:08 | 33.71126 | -79.71917 | 28739 ft | 236 kts | 215° |
| 2026-04-12 22:08 | 33.66298 | -79.75013 | 29400 ft | 236 kts | 215° |
| 2026-04-12 22:09 | 33.64853 | -79.75941 | 29604 ft | 236 kts | 216° |
| 2026-04-12 22:09 | 33.63404 | -79.76870 | 29807 ft | 236 kts | 216° |
| 2026-04-12 22:09 | 33.62446 | -79.77483 | 29940 ft | 236 kts | 216° |
| 2026-04-12 22:10 | 33.61958 | -79.77797 | 30009 ft | 236 kts | 216° |
| 2026-04-12 22:10 | 33.59554 | -79.79338 | 30340 ft | 236 kts | 216° |